sensor_id;sensor_type;location;lat;lon;timestamp;P1;durP1;ratioP1;P2;durP2;ratioP2
45128;SDS011;35512;56.312;101.728;2023-04-03T00:01:26;0.60;;;0.60;;
45128;SDS011;35512;56.312;101.728;2023-04-03T00:03:59;0.70;;;0.70;;
45128;SDS011;35512;56.312;101.728;2023-04-03T00:06:28;0.60;;;0.60;;
45128;SDS011;35512;56.312;101.728;2023-04-03T00:08:58;0.70;;;0.70;;
45128;SDS011;35512;56.312;101.728;2023-04-03T00:11:27;0.65;;;0.65;;
45128;SDS011;35512;56.312;101.728;2023-04-03T00:13:55;0.70;;;0.70;;
45128;SDS011;35512;56.312;101.728;2023-04-03T00:16:24;0.70;;;0.70;;
45128;SDS011;35512;56.312;101.728;2023-04-03T00:18:53;0.70;;;0.70;;
45128;SDS011;35512;56.312;101.728;2023-04-03T00:21:22;0.68;;;0.68;;
45128;SDS011;35512;56.312;101.728;2023-04-03T00:23:51;0.70;;;0.70;;
45128;SDS011;35512;56.312;101.728;2023-04-03T00:26:20;0.70;;;0.70;;
45128;SDS011;35512;56.312;101.728;2023-04-03T00:28:48;0.63;;;0.63;;
45128;SDS011;35512;56.312;101.728;2023-04-03T00:31:17;0.70;;;0.70;;
45128;SDS011;35512;56.312;101.728;2023-04-03T00:33:46;0.70;;;0.70;;
45128;SDS011;35512;56.312;101.728;2023-04-03T00:36:15;0.60;;;0.60;;
45128;SDS011;35512;56.312;101.728;2023-04-03T00:38:44;0.60;;;0.60;;
45128;SDS011;35512;56.312;101.728;2023-04-03T00:41:13;0.60;;;0.60;;
45128;SDS011;35512;56.312;101.728;2023-04-03T00:43:42;0.60;;;0.60;;
45128;SDS011;35512;56.312;101.728;2023-04-03T00:46:11;0.60;;;0.60;;
45128;SDS011;35512;56.312;101.728;2023-04-03T00:48:46;0.60;;;0.60;;
45128;SDS011;35512;56.312;101.728;2023-04-03T00:51:17;0.60;;;0.60;;
45128;SDS011;35512;56.312;101.728;2023-04-03T00:53:53;0.70;;;0.70;;
45128;SDS011;35512;56.312;101.728;2023-04-03T00:56:27;0.60;;;0.60;;
45128;SDS011;35512;56.312;101.728;2023-04-03T01:01:40;0.60;;;0.60;;
45128;SDS011;35512;56.312;101.728;2023-04-03T01:04:30;0.70;;;0.70;;
45128;SDS011;35512;56.312;101.728;2023-04-03T01:07:25;0.60;;;0.60;;
45128;SDS011;35512;56.312;101.728;2023-04-03T01:09:57;0.60;;;0.60;;
45128;SDS011;35512;56.312;101.728;2023-04-03T01:12:31;0.60;;;0.60;;
45128;SDS011;35512;56.312;101.728;2023-04-03T01:15:06;0.50;;;0.50;;
45128;SDS011;35512;56.312;101.728;2023-04-03T01:17:44;0.50;;;0.50;;
45128;SDS011;35512;56.312;101.728;2023-04-03T01:25:48;0.40;;;0.40;;
45128;SDS011;35512;56.312;101.728;2023-04-03T01:28:21;0.50;;;0.50;;
45128;SDS011;35512;56.312;101.728;2023-04-03T01:30:58;0.40;;;0.40;;
45128;SDS011;35512;56.312;101.728;2023-04-03T01:33:32;0.40;;;0.40;;
45128;SDS011;35512;56.312;101.728;2023-04-03T01:36:01;0.40;;;0.40;;
45128;SDS011;35512;56.312;101.728;2023-04-03T01:38:32;0.50;;;0.50;;
45128;SDS011;35512;56.312;101.728;2023-04-03T01:41:00;0.40;;;0.40;;
45128;SDS011;35512;56.312;101.728;2023-04-03T01:43:30;0.40;;;0.40;;
45128;SDS011;35512;56.312;101.728;2023-04-03T01:45:59;0.40;;;0.40;;
45128;SDS011;35512;56.312;101.728;2023-04-03T01:48:28;0.40;;;0.40;;
45128;SDS011;35512;56.312;101.728;2023-04-03T01:50:57;0.40;;;0.40;;
45128;SDS011;35512;56.312;101.728;2023-04-03T01:53:26;0.45;;;0.45;;
45128;SDS011;35512;56.312;101.728;2023-04-03T01:55:55;0.40;;;0.40;;
45128;SDS011;35512;56.312;101.728;2023-04-03T01:58:24;0.40;;;0.40;;
45128;SDS011;35512;56.312;101.728;2023-04-03T02:00:54;0.40;;;0.40;;
45128;SDS011;35512;56.312;101.728;2023-04-03T02:03:24;0.40;;;0.40;;
45128;SDS011;35512;56.312;101.728;2023-04-03T02:05:53;0.30;;;0.30;;
45128;SDS011;35512;56.312;101.728;2023-04-03T02:08:21;0.40;;;0.40;;
45128;SDS011;35512;56.312;101.728;2023-04-03T02:10:51;0.32;;;0.32;;
45128;SDS011;35512;56.312;101.728;2023-04-03T02:13:20;0.40;;;0.40;;
45128;SDS011;35512;56.312;101.728;2023-04-03T02:15:49;0.40;;;0.40;;
45128;SDS011;35512;56.312;101.728;2023-04-03T02:18:18;0.40;;;0.40;;
45128;SDS011;35512;56.312;101.728;2023-04-03T02:20:47;0.40;;;0.40;;
45128;SDS011;35512;56.312;101.728;2023-04-03T02:23:16;0.40;;;0.40;;
45128;SDS011;35512;56.312;101.728;2023-04-03T02:25:44;0.40;;;0.40;;
45128;SDS011;35512;56.312;101.728;2023-04-03T02:28:13;0.40;;;0.40;;
45128;SDS011;35512;56.312;101.728;2023-04-03T02:30:42;0.40;;;0.40;;
45128;SDS011;35512;56.312;101.728;2023-04-03T02:33:11;0.30;;;0.30;;
45128;SDS011;35512;56.312;101.728;2023-04-03T02:35:40;0.40;;;0.40;;
45128;SDS011;35512;56.312;101.728;2023-04-03T02:38:09;0.40;;;0.40;;
45128;SDS011;35512;56.312;101.728;2023-04-03T02:40:37;0.40;;;0.40;;
45128;SDS011;35512;56.312;101.728;2023-04-03T02:43:06;0.30;;;0.30;;
45128;SDS011;35512;56.312;101.728;2023-04-03T02:45:37;0.40;;;0.40;;
45128;SDS011;35512;56.312;101.728;2023-04-03T02:48:06;0.40;;;0.40;;
45128;SDS011;35512;56.312;101.728;2023-04-03T02:50:35;0.40;;;0.40;;
45128;SDS011;35512;56.312;101.728;2023-04-03T02:53:04;0.40;;;0.40;;
45128;SDS011;35512;56.312;101.728;2023-04-03T02:55:33;0.40;;;0.40;;
45128;SDS011;35512;56.312;101.728;2023-04-03T02:58:03;0.40;;;0.40;;
45128;SDS011;35512;56.312;101.728;2023-04-03T03:00:34;0.40;;;0.40;;
45128;SDS011;35512;56.312;101.728;2023-04-03T03:03:04;0.40;;;0.40;;
45128;SDS011;35512;56.312;101.728;2023-04-03T03:05:33;0.40;;;0.40;;
45128;SDS011;35512;56.312;101.728;2023-04-03T03:08:02;0.40;;;0.40;;
45128;SDS011;35512;56.312;101.728;2023-04-03T03:10:31;0.40;;;0.40;;
45128;SDS011;35512;56.312;101.728;2023-04-03T03:13:01;0.40;;;0.40;;
45128;SDS011;35512;56.312;101.728;2023-04-03T03:15:29;0.40;;;0.40;;
45128;SDS011;35512;56.312;101.728;2023-04-03T03:17:58;0.40;;;0.40;;
45128;SDS011;35512;56.312;101.728;2023-04-03T03:20:27;0.40;;;0.40;;
45128;SDS011;35512;56.312;101.728;2023-04-03T03:22:57;0.40;;;0.40;;
45128;SDS011;35512;56.312;101.728;2023-04-03T03:25:26;0.40;;;0.40;;
45128;SDS011;35512;56.312;101.728;2023-04-03T03:27:55;0.40;;;0.40;;
45128;SDS011;35512;56.312;101.728;2023-04-03T03:30:24;0.40;;;0.40;;
45128;SDS011;35512;56.312;101.728;2023-04-03T03:32:54;0.40;;;0.40;;
45128;SDS011;35512;56.312;101.728;2023-04-03T03:35:23;0.40;;;0.40;;
45128;SDS011;35512;56.312;101.728;2023-04-03T03:37:51;0.40;;;0.40;;
45128;SDS011;35512;56.312;101.728;2023-04-03T03:40:20;0.40;;;0.40;;
45128;SDS011;35512;56.312;101.728;2023-04-03T03:42:49;0.40;;;0.40;;
45128;SDS011;35512;56.312;101.728;2023-04-03T03:45:18;0.40;;;0.40;;
45128;SDS011;35512;56.312;101.728;2023-04-03T03:47:47;0.40;;;0.40;;
45128;SDS011;35512;56.312;101.728;2023-04-03T03:50:16;0.40;;;0.40;;
45128;SDS011;35512;56.312;101.728;2023-04-03T03:52:45;0.50;;;0.50;;
45128;SDS011;35512;56.312;101.728;2023-04-03T03:55:14;0.40;;;0.40;;
45128;SDS011;35512;56.312;101.728;2023-04-03T03:57:44;0.40;;;0.40;;
45128;SDS011;35512;56.312;101.728;2023-04-03T04:00:14;0.40;;;0.40;;
45128;SDS011;35512;56.312;101.728;2023-04-03T04:02:51;0.40;;;0.40;;
45128;SDS011;35512;56.312;101.728;2023-04-03T04:05:24;0.40;;;0.40;;
45128;SDS011;35512;56.312;101.728;2023-04-03T04:07:54;0.40;;;0.40;;
45128;SDS011;35512;56.312;101.728;2023-04-03T04:10:24;0.40;;;0.40;;
45128;SDS011;35512;56.312;101.728;2023-04-03T04:12:53;0.40;;;0.40;;
45128;SDS011;35512;56.312;101.728;2023-04-03T04:15:26;0.40;;;0.40;;
45128;SDS011;35512;56.312;101.728;2023-04-03T04:17:57;0.40;;;0.40;;
45128;SDS011;35512;56.312;101.728;2023-04-03T04:20:26;0.40;;;0.40;;
45128;SDS011;35512;56.312;101.728;2023-04-03T04:22:54;0.40;;;0.40;;
45128;SDS011;35512;56.312;101.728;2023-04-03T04:25:25;0.38;;;0.38;;
45128;SDS011;35512;56.312;101.728;2023-04-03T04:27:54;0.40;;;0.40;;
45128;SDS011;35512;56.312;101.728;2023-04-03T04:30:23;0.30;;;0.30;;
45128;SDS011;35512;56.312;101.728;2023-04-03T04:32:53;0.32;;;0.32;;
45128;SDS011;35512;56.312;101.728;2023-04-03T04:35:22;0.30;;;0.30;;
45128;SDS011;35512;56.312;101.728;2023-04-03T04:37:52;0.30;;;0.30;;
45128;SDS011;35512;56.312;101.728;2023-04-03T04:40:21;0.30;;;0.30;;
45128;SDS011;35512;56.312;101.728;2023-04-03T04:42:51;0.30;;;0.30;;
45128;SDS011;35512;56.312;101.728;2023-04-03T04:45:20;0.30;;;0.30;;
45128;SDS011;35512;56.312;101.728;2023-04-03T04:47:49;0.30;;;0.30;;
45128;SDS011;35512;56.312;101.728;2023-04-03T04:50:20;0.30;;;0.30;;
45128;SDS011;35512;56.312;101.728;2023-04-03T04:52:50;0.30;;;0.30;;
45128;SDS011;35512;56.312;101.728;2023-04-03T04:55:19;0.40;;;0.40;;
45128;SDS011;35512;56.312;101.728;2023-04-03T04:57:49;0.40;;;0.40;;
45128;SDS011;35512;56.312;101.728;2023-04-03T05:00:20;0.40;;;0.40;;
45128;SDS011;35512;56.312;101.728;2023-04-03T05:02:50;0.30;;;0.30;;
45128;SDS011;35512;56.312;101.728;2023-04-03T05:05:19;0.40;;;0.40;;
45128;SDS011;35512;56.312;101.728;2023-04-03T05:07:48;0.30;;;0.30;;
45128;SDS011;35512;56.312;101.728;2023-04-03T05:10:18;0.40;;;0.40;;
45128;SDS011;35512;56.312;101.728;2023-04-03T05:12:47;0.30;;;0.30;;
45128;SDS011;35512;56.312;101.728;2023-04-03T05:15:17;0.40;;;0.40;;
45128;SDS011;35512;56.312;101.728;2023-04-03T05:17:46;0.40;;;0.40;;
45128;SDS011;35512;56.312;101.728;2023-04-03T05:20:16;0.40;;;0.40;;
45128;SDS011;35512;56.312;101.728;2023-04-03T05:22:47;0.30;;;0.30;;
45128;SDS011;35512;56.312;101.728;2023-04-03T05:25:16;0.30;;;0.30;;
45128;SDS011;35512;56.312;101.728;2023-04-03T05:27:45;0.40;;;0.40;;
45128;SDS011;35512;56.312;101.728;2023-04-03T05:30:14;0.40;;;0.40;;
45128;SDS011;35512;56.312;101.728;2023-04-03T05:32:45;0.30;;;0.30;;
45128;SDS011;35512;56.312;101.728;2023-04-03T05:35:27;0.40;;;0.40;;
45128;SDS011;35512;56.312;101.728;2023-04-03T05:37:58;0.40;;;0.40;;
45128;SDS011;35512;56.312;101.728;2023-04-03T05:40:28;0.40;;;0.40;;
45128;SDS011;35512;56.312;101.728;2023-04-03T05:42:58;0.40;;;0.40;;
45128;SDS011;35512;56.312;101.728;2023-04-03T05:45:31;0.40;;;0.40;;
45128;SDS011;35512;56.312;101.728;2023-04-03T05:48:00;0.40;;;0.40;;
45128;SDS011;35512;56.312;101.728;2023-04-03T05:50:30;0.40;;;0.40;;
45128;SDS011;35512;56.312;101.728;2023-04-03T05:52:59;0.40;;;0.40;;
45128;SDS011;35512;56.312;101.728;2023-04-03T05:55:33;0.40;;;0.40;;
45128;SDS011;35512;56.312;101.728;2023-04-03T05:58:02;0.40;;;0.40;;
45128;SDS011;35512;56.312;101.728;2023-04-03T06:00:32;0.40;;;0.40;;
45128;SDS011;35512;56.312;101.728;2023-04-03T06:03:03;0.40;;;0.40;;
45128;SDS011;35512;56.312;101.728;2023-04-03T06:05:33;0.40;;;0.40;;
45128;SDS011;35512;56.312;101.728;2023-04-03T06:08:01;0.40;;;0.40;;
45128;SDS011;35512;56.312;101.728;2023-04-03T06:10:31;0.30;;;0.30;;
45128;SDS011;35512;56.312;101.728;2023-04-03T06:13:00;0.30;;;0.30;;
45128;SDS011;35512;56.312;101.728;2023-04-03T06:15:29;0.30;;;0.30;;
45128;SDS011;35512;56.312;101.728;2023-04-03T06:17:58;0.40;;;0.40;;
45128;SDS011;35512;56.312;101.728;2023-04-03T06:20:28;0.30;;;0.30;;
45128;SDS011;35512;56.312;101.728;2023-04-03T06:22:57;0.40;;;0.40;;
45128;SDS011;35512;56.312;101.728;2023-04-03T06:25:29;0.40;;;0.40;;
45128;SDS011;35512;56.312;101.728;2023-04-03T06:27:57;0.40;;;0.40;;
45128;SDS011;35512;56.312;101.728;2023-04-03T06:30:26;0.40;;;0.40;;
45128;SDS011;35512;56.312;101.728;2023-04-03T06:32:55;0.40;;;0.40;;
45128;SDS011;35512;56.312;101.728;2023-04-03T06:35:24;0.30;;;0.30;;
45128;SDS011;35512;56.312;101.728;2023-04-03T06:37:54;0.30;;;0.30;;
45128;SDS011;35512;56.312;101.728;2023-04-03T06:40:24;0.40;;;0.40;;
45128;SDS011;35512;56.312;101.728;2023-04-03T06:42:54;0.40;;;0.40;;
45128;SDS011;35512;56.312;101.728;2023-04-03T06:45:23;0.40;;;0.40;;
45128;SDS011;35512;56.312;101.728;2023-04-03T06:47:53;0.30;;;0.30;;
45128;SDS011;35512;56.312;101.728;2023-04-03T06:50:22;0.30;;;0.30;;
45128;SDS011;35512;56.312;101.728;2023-04-03T06:52:51;0.30;;;0.30;;
45128;SDS011;35512;56.312;101.728;2023-04-03T06:55:20;0.32;;;0.32;;
45128;SDS011;35512;56.312;101.728;2023-04-03T06:57:49;0.40;;;0.40;;
45128;SDS011;35512;56.312;101.728;2023-04-03T07:00:19;0.40;;;0.40;;
45128;SDS011;35512;56.312;101.728;2023-04-03T07:02:49;0.30;;;0.30;;
45128;SDS011;35512;56.312;101.728;2023-04-03T07:05:18;0.32;;;0.32;;
45128;SDS011;35512;56.312;101.728;2023-04-03T07:07:48;0.30;;;0.30;;
45128;SDS011;35512;56.312;101.728;2023-04-03T07:10:18;0.40;;;0.40;;
45128;SDS011;35512;56.312;101.728;2023-04-03T07:12:47;0.38;;;0.38;;
45128;SDS011;35512;56.312;101.728;2023-04-03T07:15:16;0.40;;;0.40;;
45128;SDS011;35512;56.312;101.728;2023-04-03T07:17:45;0.30;;;0.30;;
45128;SDS011;35512;56.312;101.728;2023-04-03T07:20:14;0.30;;;0.30;;
45128;SDS011;35512;56.312;101.728;2023-04-03T07:22:44;0.30;;;0.30;;
45128;SDS011;35512;56.312;101.728;2023-04-03T07:25:13;0.30;;;0.30;;
45128;SDS011;35512;56.312;101.728;2023-04-03T07:27:42;0.30;;;0.30;;
45128;SDS011;35512;56.312;101.728;2023-04-03T07:30:11;0.30;;;0.30;;
45128;SDS011;35512;56.312;101.728;2023-04-03T07:32:42;0.30;;;0.30;;
45128;SDS011;35512;56.312;101.728;2023-04-03T07:35:11;0.40;;;0.40;;
45128;SDS011;35512;56.312;101.728;2023-04-03T07:37:41;0.32;;;0.32;;
45128;SDS011;35512;56.312;101.728;2023-04-03T07:40:10;0.40;;;0.40;;
45128;SDS011;35512;56.312;101.728;2023-04-03T07:42:39;0.40;;;0.40;;
45128;SDS011;35512;56.312;101.728;2023-04-03T07:45:08;0.40;;;0.40;;
45128;SDS011;35512;56.312;101.728;2023-04-03T07:47:37;0.30;;;0.30;;
45128;SDS011;35512;56.312;101.728;2023-04-03T07:50:06;0.40;;;0.40;;
45128;SDS011;35512;56.312;101.728;2023-04-03T07:52:36;0.38;;;0.38;;
45128;SDS011;35512;56.312;101.728;2023-04-03T07:55:05;0.40;;;0.40;;
45128;SDS011;35512;56.312;101.728;2023-04-03T07:57:34;0.40;;;0.40;;
45128;SDS011;35512;56.312;101.728;2023-04-03T08:00:04;0.30;;;0.30;;
45128;SDS011;35512;56.312;101.728;2023-04-03T08:02:41;0.40;;;0.40;;
45128;SDS011;35512;56.312;101.728;2023-04-03T08:05:10;0.35;;;0.35;;
45128;SDS011;35512;56.312;101.728;2023-04-03T08:07:39;0.30;;;0.30;;
45128;SDS011;35512;56.312;101.728;2023-04-03T08:10:08;0.30;;;0.30;;
45128;SDS011;35512;56.312;101.728;2023-04-03T08:12:38;0.30;;;0.30;;
45128;SDS011;35512;56.312;101.728;2023-04-03T08:15:08;0.30;;;0.30;;
45128;SDS011;35512;56.312;101.728;2023-04-03T08:17:37;0.30;;;0.30;;
45128;SDS011;35512;56.312;101.728;2023-04-03T08:20:06;0.30;;;0.30;;
45128;SDS011;35512;56.312;101.728;2023-04-03T08:22:36;0.30;;;0.30;;
45128;SDS011;35512;56.312;101.728;2023-04-03T08:25:05;0.30;;;0.30;;
45128;SDS011;35512;56.312;101.728;2023-04-03T08:27:34;0.30;;;0.30;;
45128;SDS011;35512;56.312;101.728;2023-04-03T08:30:04;0.40;;;0.40;;
45128;SDS011;35512;56.312;101.728;2023-04-03T08:32:33;0.30;;;0.30;;
45128;SDS011;35512;56.312;101.728;2023-04-03T08:35:05;0.30;;;0.30;;
45128;SDS011;35512;56.312;101.728;2023-04-03T08:37:35;0.30;;;0.30;;
45128;SDS011;35512;56.312;101.728;2023-04-03T08:40:05;0.40;;;0.40;;
45128;SDS011;35512;56.312;101.728;2023-04-03T08:42:45;0.30;;;0.30;;
45128;SDS011;35512;56.312;101.728;2023-04-03T08:45:35;0.30;;;0.30;;
45128;SDS011;35512;56.312;101.728;2023-04-03T08:48:36;0.30;;;0.30;;
45128;SDS011;35512;56.312;101.728;2023-04-03T08:51:15;0.40;;;0.40;;
45128;SDS011;35512;56.312;101.728;2023-04-03T08:53:59;0.40;;;0.40;;
45128;SDS011;35512;56.312;101.728;2023-04-03T08:56:33;0.40;;;0.40;;
45128;SDS011;35512;56.312;101.728;2023-04-03T08:59:05;0.40;;;0.40;;
45128;SDS011;35512;56.312;101.728;2023-04-03T09:01:41;0.40;;;0.40;;
45128;SDS011;35512;56.312;101.728;2023-04-03T09:04:12;0.30;;;0.30;;
45128;SDS011;35512;56.312;101.728;2023-04-03T09:06:45;0.30;;;0.30;;
45128;SDS011;35512;56.312;101.728;2023-04-03T09:09:30;0.40;;;0.40;;
45128;SDS011;35512;56.312;101.728;2023-04-03T09:14:52;0.30;;;0.30;;
45128;SDS011;35512;56.312;101.728;2023-04-03T09:26:03;0.40;;;0.40;;
45128;SDS011;35512;56.312;101.728;2023-04-03T09:28:40;0.40;;;0.40;;
45128;SDS011;35512;56.312;101.728;2023-04-03T09:31:24;0.30;;;0.30;;
45128;SDS011;35512;56.312;101.728;2023-04-03T09:33:59;0.40;;;0.40;;
45128;SDS011;35512;56.312;101.728;2023-04-03T09:36:39;0.40;;;0.40;;
45128;SDS011;35512;56.312;101.728;2023-04-03T09:39:20;0.40;;;0.40;;
45128;SDS011;35512;56.312;101.728;2023-04-03T09:42:37;0.40;;;0.40;;
45128;SDS011;35512;56.312;101.728;2023-04-03T09:44:54;0.40;;;0.40;;
45128;SDS011;35512;56.312;101.728;2023-04-03T09:52:43;0.40;;;0.40;;
45128;SDS011;35512;56.312;101.728;2023-04-03T09:55:15;0.40;;;0.40;;
45128;SDS011;35512;56.312;101.728;2023-04-03T09:57:59;0.30;;;0.30;;
45128;SDS011;35512;56.312;101.728;2023-04-03T10:00:34;0.40;;;0.40;;
45128;SDS011;35512;56.312;101.728;2023-04-03T10:03:24;0.40;;;0.40;;
45128;SDS011;35512;56.312;101.728;2023-04-03T10:05:55;0.40;;;0.40;;
45128;SDS011;35512;56.312;101.728;2023-04-03T10:08:28;0.30;;;0.30;;
45128;SDS011;35512;56.312;101.728;2023-04-03T10:11:33;0.40;;;0.40;;
45128;SDS011;35512;56.312;101.728;2023-04-03T10:14:01;0.30;;;0.30;;
45128;SDS011;35512;56.312;101.728;2023-04-03T10:27:39;0.40;;;0.40;;
45128;SDS011;35512;56.312;101.728;2023-04-03T10:33:05;0.40;;;0.40;;
45128;SDS011;35512;56.312;101.728;2023-04-03T10:39:04;0.40;;;0.40;;
45128;SDS011;35512;56.312;101.728;2023-04-03T10:42:05;0.40;;;0.40;;
45128;SDS011;35512;56.312;101.728;2023-04-03T10:45:08;0.40;;;0.40;;
45128;SDS011;35512;56.312;101.728;2023-04-03T10:53:41;0.40;;;0.40;;
45128;SDS011;35512;56.312;101.728;2023-04-03T10:56:24;0.40;;;0.40;;
45128;SDS011;35512;56.312;101.728;2023-04-03T11:02:07;0.40;;;0.40;;
45128;SDS011;35512;56.312;101.728;2023-04-03T11:04:42;0.40;;;0.40;;
45128;SDS011;35512;56.312;101.728;2023-04-03T11:07:15;0.40;;;0.40;;
45128;SDS011;35512;56.312;101.728;2023-04-03T11:09:52;0.40;;;0.40;;
45128;SDS011;35512;56.312;101.728;2023-04-03T11:12:48;0.40;;;0.40;;
45128;SDS011;35512;56.312;101.728;2023-04-03T11:15:21;0.40;;;0.40;;
45128;SDS011;35512;56.312;101.728;2023-04-03T11:17:54;0.30;;;0.30;;
45128;SDS011;35512;56.312;101.728;2023-04-03T11:20:28;0.40;;;0.40;;
45128;SDS011;35512;56.312;101.728;2023-04-03T11:23:02;0.40;;;0.40;;
45128;SDS011;35512;56.312;101.728;2023-04-03T11:25:35;0.40;;;0.40;;
45128;SDS011;35512;56.312;101.728;2023-04-03T11:28:13;0.40;;;0.40;;
45128;SDS011;35512;56.312;101.728;2023-04-03T11:30:51;0.40;;;0.40;;
45128;SDS011;35512;56.312;101.728;2023-04-03T11:39:38;0.40;;;0.40;;
45128;SDS011;35512;56.312;101.728;2023-04-03T11:42:36;0.40;;;0.40;;
45128;SDS011;35512;56.312;101.728;2023-04-03T11:47:58;0.40;;;0.40;;
45128;SDS011;35512;56.312;101.728;2023-04-03T11:50:50;0.40;;;0.40;;
45128;SDS011;35512;56.312;101.728;2023-04-03T11:53:27;0.40;;;0.40;;
45128;SDS011;35512;56.312;101.728;2023-04-03T11:56:02;0.40;;;0.40;;
45128;SDS011;35512;56.312;101.728;2023-04-03T11:59:25;0.40;;;0.40;;
45128;SDS011;35512;56.312;101.728;2023-04-03T12:01:51;0.40;;;0.40;;
45128;SDS011;35512;56.312;101.728;2023-04-03T12:04:25;0.40;;;0.40;;
45128;SDS011;35512;56.312;101.728;2023-04-03T12:07:29;0.40;;;0.40;;
45128;SDS011;35512;56.312;101.728;2023-04-03T12:12:35;0.40;;;0.40;;
45128;SDS011;35512;56.312;101.728;2023-04-03T12:15:24;0.40;;;0.40;;
45128;SDS011;35512;56.312;101.728;2023-04-03T12:21:23;0.50;;;0.50;;
45128;SDS011;35512;56.312;101.728;2023-04-03T12:26:40;0.40;;;0.40;;
45128;SDS011;35512;56.312;101.728;2023-04-03T12:46:22;0.40;;;0.40;;
45128;SDS011;35512;56.312;101.728;2023-04-03T12:51:34;0.40;;;0.40;;
45128;SDS011;35512;56.312;101.728;2023-04-03T12:59:47;0.40;;;0.40;;
45128;SDS011;35512;56.312;101.728;2023-04-03T13:04:50;0.40;;;0.40;;
45128;SDS011;35512;56.312;101.728;2023-04-03T13:07:28;0.43;;;0.43;;
45128;SDS011;35512;56.312;101.728;2023-04-03T13:12:44;0.40;;;0.40;;
45128;SDS011;35512;56.312;101.728;2023-04-03T13:15:25;0.40;;;0.40;;
45128;SDS011;35512;56.312;101.728;2023-04-03T13:17:54;0.40;;;0.40;;
45128;SDS011;35512;56.312;101.728;2023-04-03T13:20:28;0.40;;;0.40;;
45128;SDS011;35512;56.312;101.728;2023-04-03T13:23:07;0.40;;;0.40;;
45128;SDS011;35512;56.312;101.728;2023-04-03T13:25:41;0.40;;;0.40;;
45128;SDS011;35512;56.312;101.728;2023-04-03T13:28:13;0.40;;;0.40;;
45128;SDS011;35512;56.312;101.728;2023-04-03T13:31:02;0.40;;;0.40;;
45128;SDS011;35512;56.312;101.728;2023-04-03T13:33:39;0.40;;;0.40;;
45128;SDS011;35512;56.312;101.728;2023-04-03T13:36:41;0.40;;;0.40;;
45128;SDS011;35512;56.312;101.728;2023-04-03T13:41:44;0.40;;;0.40;;
45128;SDS011;35512;56.312;101.728;2023-04-03T13:44:34;0.40;;;0.40;;
45128;SDS011;35512;56.312;101.728;2023-04-03T13:50:01;0.40;;;0.40;;
45128;SDS011;35512;56.312;101.728;2023-04-03T13:52:47;0.40;;;0.40;;
45128;SDS011;35512;56.312;101.728;2023-04-03T13:55:27;0.40;;;0.40;;
45128;SDS011;35512;56.312;101.728;2023-04-03T13:58:03;0.40;;;0.40;;
45128;SDS011;35512;56.312;101.728;2023-04-03T14:00:58;0.40;;;0.40;;
45128;SDS011;35512;56.312;101.728;2023-04-03T14:03:57;0.40;;;0.40;;
45128;SDS011;35512;56.312;101.728;2023-04-03T14:06:28;0.40;;;0.40;;
45128;SDS011;35512;56.312;101.728;2023-04-03T14:08:58;0.43;;;0.43;;
45128;SDS011;35512;56.312;101.728;2023-04-03T14:11:28;0.40;;;0.40;;
45128;SDS011;35512;56.312;101.728;2023-04-03T14:14:00;0.40;;;0.40;;
45128;SDS011;35512;56.312;101.728;2023-04-03T14:16:38;0.40;;;0.40;;
45128;SDS011;35512;56.312;101.728;2023-04-03T14:19:14;0.40;;;0.40;;
45128;SDS011;35512;56.312;101.728;2023-04-03T14:21:47;0.40;;;0.40;;
45128;SDS011;35512;56.312;101.728;2023-04-03T14:24:19;0.43;;;0.43;;
45128;SDS011;35512;56.312;101.728;2023-04-03T14:26:50;0.40;;;0.40;;
45128;SDS011;35512;56.312;101.728;2023-04-03T14:29:21;0.40;;;0.40;;
45128;SDS011;35512;56.312;101.728;2023-04-03T14:31:50;0.40;;;0.40;;
45128;SDS011;35512;56.312;101.728;2023-04-03T14:34:38;0.40;;;0.40;;
45128;SDS011;35512;56.312;101.728;2023-04-03T14:37:11;0.40;;;0.40;;
45128;SDS011;35512;56.312;101.728;2023-04-03T14:39:41;0.40;;;0.40;;
45128;SDS011;35512;56.312;101.728;2023-04-03T14:42:13;0.45;;;0.45;;
45128;SDS011;35512;56.312;101.728;2023-04-03T14:44:44;0.40;;;0.40;;
45128;SDS011;35512;56.312;101.728;2023-04-03T14:47:15;0.45;;;0.45;;
45128;SDS011;35512;56.312;101.728;2023-04-03T14:49:59;0.40;;;0.40;;
45128;SDS011;35512;56.312;101.728;2023-04-03T14:52:34;0.50;;;0.50;;
45128;SDS011;35512;56.312;101.728;2023-04-03T14:55:04;0.45;;;0.45;;
45128;SDS011;35512;56.312;101.728;2023-04-03T14:57:34;0.45;;;0.45;;
45128;SDS011;35512;56.312;101.728;2023-04-03T15:00:04;0.40;;;0.40;;
45128;SDS011;35512;56.312;101.728;2023-04-03T15:02:36;0.50;;;0.50;;
45128;SDS011;35512;56.312;101.728;2023-04-03T15:05:08;0.50;;;0.50;;
45128;SDS011;35512;56.312;101.728;2023-04-03T15:07:43;0.50;;;0.50;;
45128;SDS011;35512;56.312;101.728;2023-04-03T15:12:52;0.40;;;0.40;;
45128;SDS011;35512;56.312;101.728;2023-04-03T15:15:22;0.43;;;0.43;;
45128;SDS011;35512;56.312;101.728;2023-04-03T15:17:52;0.40;;;0.40;;
45128;SDS011;35512;56.312;101.728;2023-04-03T15:20:24;0.40;;;0.40;;
45128;SDS011;35512;56.312;101.728;2023-04-03T15:22:55;0.40;;;0.40;;
45128;SDS011;35512;56.312;101.728;2023-04-03T15:25:29;0.50;;;0.50;;
45128;SDS011;35512;56.312;101.728;2023-04-03T15:27:58;0.45;;;0.45;;
45128;SDS011;35512;56.312;101.728;2023-04-03T15:30:28;0.50;;;0.50;;
45128;SDS011;35512;56.312;101.728;2023-04-03T15:32:57;0.40;;;0.40;;
45128;SDS011;35512;56.312;101.728;2023-04-03T15:35:26;0.40;;;0.40;;
45128;SDS011;35512;56.312;101.728;2023-04-03T15:37:55;0.40;;;0.40;;
45128;SDS011;35512;56.312;101.728;2023-04-03T15:40:25;0.40;;;0.40;;
45128;SDS011;35512;56.312;101.728;2023-04-03T15:42:54;0.40;;;0.40;;
45128;SDS011;35512;56.312;101.728;2023-04-03T15:45:23;0.50;;;0.50;;
45128;SDS011;35512;56.312;101.728;2023-04-03T15:47:53;0.40;;;0.40;;
45128;SDS011;35512;56.312;101.728;2023-04-03T15:50:21;0.40;;;0.40;;
45128;SDS011;35512;56.312;101.728;2023-04-03T15:52:53;0.47;;;0.47;;
45128;SDS011;35512;56.312;101.728;2023-04-03T15:55:26;0.40;;;0.40;;
45128;SDS011;35512;56.312;101.728;2023-04-03T15:57:56;0.47;;;0.47;;
45128;SDS011;35512;56.312;101.728;2023-04-03T16:00:26;0.40;;;0.40;;
45128;SDS011;35512;56.312;101.728;2023-04-03T16:02:58;0.47;;;0.47;;
45128;SDS011;35512;56.312;101.728;2023-04-03T16:05:33;0.47;;;0.47;;
45128;SDS011;35512;56.312;101.728;2023-04-03T16:08:05;0.40;;;0.40;;
45128;SDS011;35512;56.312;101.728;2023-04-03T16:10:36;0.40;;;0.40;;
45128;SDS011;35512;56.312;101.728;2023-04-03T16:13:06;0.40;;;0.40;;
45128;SDS011;35512;56.312;101.728;2023-04-03T16:15:35;0.40;;;0.40;;
45128;SDS011;35512;56.312;101.728;2023-04-03T16:18:04;0.40;;;0.40;;
45128;SDS011;35512;56.312;101.728;2023-04-03T16:20:33;0.40;;;0.40;;
45128;SDS011;35512;56.312;101.728;2023-04-03T16:23:04;0.40;;;0.40;;
45128;SDS011;35512;56.312;101.728;2023-04-03T16:25:34;0.40;;;0.40;;
45128;SDS011;35512;56.312;101.728;2023-04-03T16:28:04;0.50;;;0.50;;
45128;SDS011;35512;56.312;101.728;2023-04-03T16:30:34;0.45;;;0.45;;
45128;SDS011;35512;56.312;101.728;2023-04-03T16:33:03;0.40;;;0.40;;
45128;SDS011;35512;56.312;101.728;2023-04-03T16:35:32;0.40;;;0.40;;
45128;SDS011;35512;56.312;101.728;2023-04-03T16:38:02;0.40;;;0.40;;
45128;SDS011;35512;56.312;101.728;2023-04-03T16:40:32;0.47;;;0.47;;